Pointe-a-Pitre, Guadeloupe

10:37 AM AST on December 05, 2016 (GMT -0400)
Tabanon-PWS | | Change Station

Elev 472 ft 16.20 °N, 61.64 °W | Updated 4 seconds ago

Mostly Cloudy
Mostly Cloudy
82.8 °F
Feels Like 91 °F
N
8.3
Wind Variable Wind from SSE
Gusts 9.8 mph

Today
High -- | Low -- °F
--% Chance of Precip.
Yesterday
High -- | Low -- °F
Precip. -- in
Pressure 30.01 in
Visibility -9999.0 miles
Clouds Mostly Cloudy 2700 ft
Mostly Cloudy 3500 ft
Mostly Cloudy 6600 ft
Heat Index 91 °F
Dew Point 77 °F
Humidity 82%
Rainfall 0.00 in
Snow Depth Not available.
6:21 AM 5:33 PM
Waxing Crescent, 32% visible
METAR TFFR 051430Z AUTO 10010KT //// R12///// // BKN027 BKN035 BKN066 29/23 Q1016
Pressure 30.01 in
Visibility -9999.0 miles
Clouds Mostly Cloudy 2700 ft
Mostly Cloudy 3500 ft
Mostly Cloudy 6600 ft
Heat Index 91 °F
Dew Point 77 °F
Humidity 82%
Rainfall 0.00 in
Snow Depth Not available.
6:21 AM 5:33 PM
Waxing Crescent, 32% visible
METAR TFFR 051430Z AUTO 10010KT //// R12///// // BKN027 BKN035 BKN066 29/23 Q1016

10-Day Weather Forecast

No radar image for this location.
×

Almanac

Astronomy

Dec. 05, 2016 Rise Set
Actual Time
Civil Twilight
Nautical Twilight
Astronomical Twilight
Moon
Length of Visible Light
Length of Day
Tomorrow will be .
, % of the Moon is Illuminated

Today's Extremes

Country Highs Country Lows

Community

WunderPhotos

Upload Photos

1,955,782 photos uploaded!

WunderBlog® & News

Nearby

Air Quality

  Air Quality AQ Index Pollutant
Not available.

Snow Depth

Station Depth Elevation

Earthquake Activity

City Distance Mag. Time & Date
Minimum magnitude displayed is 2.5.

Coastal Water Temperatures

Place Temperature

Stations

Nearby Weather Stations

Station Location Temp. Windchill Dew Point Humidity Wind Precip. Elev Updated Type